Latest Weather Observations for Mangalore

IDV60801

Issued at 7:02 pm EDT Saturday 21 January 2017 (issued every 30 minutes, with the page automatically refreshed every 10 minutes)

About weather observations | Map of weather stations | Latest weather observations for VIC | Other Formats
Station Details ID: 088109 Name: MANGALORE AIRPORT Lat: -36.89 Lon: 145.19 Height: 140.8 m
Data from the previous 72 hours. | See also: Recent months at Mangalore
Date/Time
EDT
Temp
°C
App
Temp
°C
Dew
Point
°C
Rel
Hum
%
Delta-T
°C
Wind Press
QNH
hPa
Press
MSL
hPa
Rain since
9am
mm
Dir  Spd
km/h
Gust
km/h
Spd
kts
Gust
kts
21/07:00pm 23.9 19.4 8.7 38 8.2 S 22 32 12 17 1013.1 1012.5 0.0
21/06:30pm 24.3 18.6 8.3 36 8.6 SSE 28 35 15 19 1013.0 1012.4 0.0
21/06:00pm 24.7 19.8 8.6 36 8.7 SSE 24 33 13 18 1012.8 1012.2 0.0
21/05:30pm 25.3 20.5 8.7 35 9.0 SSE 24 33 13 18 1012.8 1012.2 0.0
21/05:00pm 25.1 20.6 8.6 35 8.9 SSE 22 28 12 15 1013.0 1012.4 0.0
21/04:30pm 25.0 20.8 9.7 38 8.4 S 22 30 12 16 1013.1 1012.5 0.0
21/04:00pm 24.9 19.8 9.2 37 8.6 SSE 26 35 14 19 1013.3 1012.7 0.0
21/03:30pm 24.2 19.3 10.1 41 7.8 SSE 26 35 14 19 1013.5 1012.9 0.0
21/03:00pm 23.4 18.5 8.3 38 8.1 S 24 35 13 19 1013.5 1012.9 0.0
21/02:30pm 23.0 18.6 7.5 37 8.1 S 20 32 11 17 1013.7 1013.1 0.0
21/02:00pm 23.2 18.9 9.2 41 7.6 S 22 32 12 17 1014.0 1013.4 0.0
21/01:30pm 21.8 17.9 9.3 45 6.7 SSW 20 35 11 19 1014.2 1013.6 0.0
21/01:00pm 21.5 17.3 9.7 47 6.4 SSW 22 33 12 18 1014.4 1013.8 0.0
21/12:30pm 20.9 17.0 9.5 48 6.1 SSW 20 32 11 17 1014.6 1014.0 0.0
21/12:00pm 20.7 15.9 7.3 42 6.9 S 22 33 12 18 1014.7 1014.2 0.0
21/11:30am 19.6 14.8 7.4 45 6.3 S 22 33 12 18 1014.8 1014.3 0.0
21/11:00am 19.1 13.9 7.2 46 6.1 S 24 32 13 17 1014.6 1014.0 0.0
21/10:30am 18.9 14.7 8.3 50 5.5 S 20 28 11 15 1014.5 1013.9 0.0
21/10:00am 18.5 13.6 8.5 52 5.2 S 24 35 13 19 1014.4 1013.8 0.0
21/09:30am 17.5 12.0 7.5 52 5.1 SSE 26 39 14 21 1014.5 1013.9 0.0
21/09:00am 16.1 11.2 6.8 54 4.6 S 22 32 12 17 1014.3 1013.7 0.6
21/08:30am 15.7 11.3 7.5 58 4.1 S 20 28 11 15 1013.8 1013.2 0.6
21/08:00am 14.8 10.8 6.6 58 4.0 S 17 20 9 11 1013.5 1012.9 0.6
21/07:30am 14.3 11.2 7.1 62 3.5 SSE 13 20 7 11 1013.0 1012.4 0.6
21/07:00am 13.5 9.5 6.8 64 3.3 SSE 17 19 9 10 1012.5 1011.9 0.6
21/06:30am 13.3 10.2 7.1 66 3.0 SSE 13 19 7 10 1012.1 1011.5 0.6
21/06:00am 12.9 10.1 7.1 68 2.8 S 11 17 6 9 1011.7 1011.1 0.6
21/05:30am 13.4 9.5 7.0 65 3.1 S 17 24 9 13 1011.2 1010.7 0.6
21/05:00am 13.3 10.6 7.3 67 2.9 S 11 17 6 9 1010.8 1010.3 0.6
21/04:30am 14.1 10.3 7.6 65 3.2 S 17 28 9 15 1010.4 1009.9 0.6
21/04:00am 14.0 10.6 7.5 65 3.2 SSW 15 24 8 13 1010.0 1009.5 0.6
21/03:30am 14.5 10.2 7.8 64 3.3 S 20 32 11 17 1009.8 1009.3 0.6
21/03:00am 14.2 11.0 8.4 68 2.9 SSW 15 19 8 10 1009.7 1009.2 0.6
21/02:30am 14.3 11.1 8.5 68 2.9 SSW 15 22 8 12 1009.5 1009.0 0.6
21/02:00am 14.7 11.5 8.6 67 3.1 SSW 15 22 8 12 1009.5 1009.0 0.6
21/01:30am 14.5 10.8 7.8 64 3.3 S 17 30 9 16 1009.2 1008.7 0.6
21/01:00am 14.7 10.0 7.7 63 3.5 S 22 35 12 19 1009.0 1008.5 0.6
21/12:30am 14.6 10.4 7.6 63 3.5 S 19 28 10 15 1008.9 1008.4 0.6
21/12:00am 15.1 10.1 8.1 63 3.5 S 24 37 13 20 1008.7 1008.2 0.6
 
Date/Time
EDT
Temp
°C
App
Temp
°C
Dew
Point
°C
Rel
Hum
%
Delta-T
°C
Wind Press
QNH
hPa
Press
MSL
hPa
Rain since
9am
mm
Dir  Spd
km/h
Gust
km/h
Spd
kts
Gust
kts
20/11:30pm 15.5 11.7 9.0 65 3.4 S 19 28 10 15 1008.3 1007.7 0.6
20/11:00pm 15.8 10.5 8.5 62 3.7 S 26 41 14 22 1008.1 1007.5 0.6
20/10:30pm 15.9 10.6 8.4 61 3.8 S 26 35 14 19 1007.8 1007.2 0.6
20/10:00pm 16.2 12.4 8.9 62 3.8 S 19 30 10 16 1007.5 1006.9 0.6
20/09:30pm 16.2 11.4 8.7 61 3.9 S 24 39 13 21 1007.2 1006.6 0.6
20/09:00pm 16.4 10.5 8.9 61 3.9 SSW 30 43 16 23 1007.0 1006.4 0.6
20/08:30pm 17.0 10.7 8.9 59 4.2 SSW 32 48 17 26 1006.4 1005.8 0.6
20/08:07pm 17.5 11.6 8.9 57 4.5 S 30 48 16 26 1005.8 1005.2 0.6
20/08:00pm 17.8 11.4 9.2 57 4.5 S 33 46 18 25 1005.5 1004.9 0.6
20/07:30pm 18.9 13.6 9.7 55 4.9 SSW 28 46 15 25 1004.8 1004.2 0.6
20/07:00pm 19.4 13.3 9.9 54 5.1 SSW 32 50 17 27 1004.3 1003.7 0.6
20/06:38pm 20.2 13.5 9.5 50 5.7 S 35 54 19 29 1003.7 1003.2 0.6
20/06:30pm 20.5 13.4 9.7 50 5.8 S 37 54 20 29 1003.5 1003.0 0.6
20/06:00pm 20.1 13.4 9.7 51 5.6 S 35 57 19 31 1002.8 1002.3 0.6
20/05:30pm 21.3 14.5 10.5 50 5.9 S 37 57 20 31 1002.2 1001.6 0.6
20/05:00pm 21.8 15.8 10.0 47 6.5 SSW 32 52 17 28 1001.8 1001.2 0.6
20/04:35pm 21.9 16.1 10.7 49 6.2 SSW 32 50 17 27 1001.6 1001.0 0.6
20/04:30pm 20.7 14.4 9.6 49 6.0 SSW 33 50 18 27 1001.6 1001.0 0.6
20/04:13pm 20.3 14.0 9.8 51 5.7 SSW 33 52 18 28 1001.6 1001.0 0.6
20/04:00pm 21.0 14.8 9.9 49 6.0 SSW 33 46 18 25 1001.4 1000.8 0.6
20/03:42pm 21.0 14.2 9.3 47 6.3 SSW 35 57 19 31 1001.0 1000.4 0.6
20/03:30pm 21.3 15.4 10.5 50 5.9 SSW 32 48 17 26 1000.9 1000.3 0.6
20/03:18pm 21.0 15.0 10.2 50 5.9 SSW 32 50 17 27 1000.9 1000.3 0.6
20/03:00pm 21.4 15.2 11.4 53 5.6 SSW 35 48 19 26 1001.0 1000.4 0.6
20/02:30pm 20.4 13.0 9.9 51 5.7 SSW 39 57 21 31 1000.8 1000.2 0.6
20/02:00pm 20.4 13.7 11.1 55 5.2 SSW 37 56 20 30 1000.4 999.8 0.6
20/01:44pm 20.6 13.8 12.1 58 4.8 SSW 39 57 21 31 1000.4 999.8 0.6
20/01:30pm 20.7 13.6 12.1 58 4.8 S 41 56 22 30 1000.0 999.4 0.6
20/01:05pm 21.4 16.1 12.5 57 5.1 SSW 32 52 17 28 999.4 998.8 0.6
20/01:00pm 22.9 17.9 13.9 57 5.3 SSW 33 46 18 25 999.1 998.5 0.6
20/12:30pm 22.4 18.9 15.5 65 4.2 SW 28 50 15 27 998.2 997.6 0.6
20/12:00pm 23.1 20.9 17.8 72 3.3 WSW 26 35 14 19 997.8 997.2 0.6
20/11:47am 22.6 20.8 17.9 75 2.9 SW 24 30 13 16 997.6 997.0 0.4
20/11:30am 21.2 19.4 17.8 81 2.1 WSW 24 33 13 18 997.4 996.8 0.4
20/11:00am 19.7 19.2 17.7 88 1.2 W 17 24 9 13 997.3 996.7 0.4
20/10:30am 19.8 20.0 18.5 92 0.8 WNW 15 20 8 11 996.9 996.3 0.4
20/10:00am 19.1 20.2 18.9 99 0.1 NW 11 15 6 8 996.9 996.3 0.4
20/09:57am 18.4 19.2 18.2 99 0.1 NW 11 15 6 8 996.9 996.3 0.4
20/09:30am 18.2 19.3 18.0 99 0.1 NW 9 15 5 8 997.0 996.4 0.4
20/09:00am 17.9 18.5 17.7 99 0.1 NW 11 15 6 8 996.9 996.3 22.6
20/08:58am 18.0 18.6 17.8 99 0.1 NNW 11 15 6 8 996.8 996.2 22.4
20/08:30am 17.7 16.7 17.5 99 0.1 NE 19 24 10 13 995.0 994.4 21.4
20/08:11am 17.7 16.5 17.5 99 0.1 NE 20 28 11 15 995.0 994.4 17.0
20/08:00am 17.6 16.5 17.4 99 0.1 NNE 19 28 10 15 994.9 994.3 16.6
20/07:30am 17.0 15.5 16.8 99 0.1 NE 20 28 11 15 995.3 994.7 16.6
20/07:00am 16.6 14.2 16.4 99 0.1 NE 24 32 13 17 995.9 995.3 16.2
20/06:30am 15.9 15.7 15.6 98 0.2 SW 11 30 6 16 996.2 995.7 13.4
20/06:00am 16.1 15.0 15.3 95 0.5 SW 15 20 8 11 998.1 997.5 9.0
20/05:59am 16.2 15.1 15.4 95 0.5 SW 15 22 8 12 998.0 997.4 8.8
20/05:30am 17.1 16.7 15.3 89 1.1 ENE 11 17 6 9 996.6 996.0 7.8
20/05:00am 16.4 15.7 15.4 94 0.6 E 13 17 7 9 996.4 995.9 7.8
20/04:30am 15.6 13.5 14.6 94 0.6 SE 19 26 10 14 997.8 997.2 7.4
20/04:10am 15.5 13.9 14.9 96 0.3 SE 17 26 9 14 998.4 997.8 7.4
20/04:00am 15.5 13.3 14.9 96 0.3 SE 20 24 11 13 999.3 998.7 7.0
20/03:30am 15.6 14.1 14.3 92 0.7 SSW 15 19 8 10 1001.0 1000.4 4.2
20/03:25am 15.8 13.9 14.2 90 0.9 SSW 17 22 9 12 1001.2 1000.6 2.8
20/03:17am 15.9 13.4 13.4 85 1.4 SW 19 26 10 14 1001.4 1000.8 2.0
20/03:02am 16.5 11.3 13.4 82 1.8 WSW 33 52 18 28 1001.6 1001.0 1.2
20/03:00am 16.6 10.6 13.3 81 1.9 WSW 37 54 20 29 1001.5 1000.9 1.2
20/02:51am 18.4 12.4 12.2 67 3.5 WSW 35 63 19 34 1001.4 1000.8 0.6
20/02:47am 19.6 15.5 12.8 65 3.9 WSW 26 48 14 26 1000.9 1000.3 0.0
20/02:44am 19.8 16.9 13.0 65 3.9 WSW 20 30 11 16 999.9 999.3 0.0
20/02:30am 20.5 19.7 10.9 54 5.3 W 6 15 3 8 997.9 997.3 0.0
20/02:00am 20.0 20.4 11.2 57 4.9 CALM 0 0 0 0 997.4 996.8 0.0
20/01:30am 20.4 20.6 10.5 53 5.4 CALM 0 0 0 0 998.3 997.7 0.0
20/01:00am 21.5 21.5 9.7 47 6.4 CALM 0 0 0 0 998.9 998.3 0.0
20/12:30am 21.8 20.4 8.7 43 7.0 W 6 9 3 5 998.9 998.3 0.0
20/12:00am 22.3 20.4 7.7 39 7.7 W 7 11 4 6 999.5 998.9 0.0
 
Date/Time
EDT
Temp
°C
App
Temp
°C
Dew
Point
°C
Rel
Hum
%
Delta-T
°C
Wind Press
QNH
hPa
Press
MSL
hPa
Rain since
9am
mm
Dir  Spd
km/h
Gust
km/h
Spd
kts
Gust
kts
19/11:30pm 22.5 22.2 8.6 41 7.4 CALM 0 0 0 0 999.6 999.0 0.0
19/11:00pm 23.1 21.6 8.4 39 7.9 W 6 7 3 4 1000.2 999.6 0.0
19/10:30pm 22.7 21.5 9.5 43 7.2 W 6 11 3 6 1001.0 1000.4 0.0
19/10:00pm 24.7 24.3 8.2 35 8.9 CALM 0 0 0 0 1002.0 1001.4 0.0
19/09:30pm 24.5 22.2 5.8 30 9.6 W 7 9 4 5 1002.2 1001.6 0.0
19/09:00pm 25.8 23.5 4.9 26 10.7 W 6 7 3 4 1002.9 1002.4 0.0
19/08:30pm 26.5 23.9 4.3 24 11.2 W 7 9 4 5 1003.1 1002.6 0.0
19/08:00pm 27.7 24.9 3.4 21 12.3 W 7 9 4 5 1003.5 1003.0 0.0
19/07:30pm 28.2 25.0 3.1 20 12.6 NNW 9 11 5 6 1003.7 1003.2 0.0
19/07:00pm 28.9 26.2 3.7 20 12.9 NNW 7 9 4 5 1004.2 1003.6 0.0
19/06:30pm 29.1 26.4 3.9 20 12.9 ENE 7 11 4 6 1004.4 1003.8 0.0
19/06:00pm 29.8 27.4 2.1 17 13.8 ESE 4 6 2 3 1004.7 1004.1 0.0
19/05:30pm 30.1 27.2 2.4 17 13.9 N 7 11 4 6 1005.1 1004.5 0.0
19/05:00pm 30.1 27.2 2.4 17 13.9 NNW 7 13 4 7 1005.7 1005.1 0.0
19/04:30pm 30.2 27.3 4.8 20 13.3 NNW 9 13 5 7 1006.3 1005.7 0.0
19/04:00pm 29.2 26.6 4.0 20 12.9 NNW 7 13 4 7 1007.1 1006.5 0.0
19/03:30pm 28.8 25.5 4.3 21 12.6 N 11 15 6 8 1007.3 1006.7 0.0
19/03:00pm 28.8 25.7 5.6 23 12.2 W 11 19 6 10 1007.9 1007.3 0.0
19/02:30pm 28.7 26.0 7.3 26 11.6 S 11 24 6 13 1008.4 1007.8 0.0
19/02:00pm 26.8 23.6 6.8 28 10.6 WSW 13 19 7 10 1009.2 1008.7 0.0
19/01:30pm 25.4 22.6 7.1 31 9.7 W 11 20 6 11 1009.7 1009.2 0.0
19/01:00pm 24.6 22.2 6.8 32 9.3 W 9 19 5 10 1010.2 1009.7 0.0
19/12:30pm 23.9 21.1 7.1 34 8.8 SE 11 17 6 9 1010.6 1010.1 0.0
19/12:00pm 23.9 21.5 7.1 34 8.8 W 9 15 5 8 1011.2 1010.7 0.0
19/11:30am 22.5 19.0 5.4 33 8.6 SSW 13 22 7 12 1011.6 1011.0 0.0
19/11:00am 21.3 17.0 5.2 35 8.0 SSW 17 24 9 13 1011.9 1011.3 0.0
19/10:30am 20.2 15.9 5.4 38 7.3 SSW 17 22 9 12 1012.1 1011.5 0.0
19/10:00am 19.2 14.6 5.6 41 6.7 SSW 19 26 10 14 1012.4 1011.8 0.0
19/09:30am 17.6 12.7 4.9 43 6.1 S 20 28 11 15 1012.5 1011.9 0.0
19/09:00am 16.1 10.7 4.5 46 5.5 S 22 30 12 16 1012.6 1012.0 0.0
19/08:30am 15.1 9.4 5.0 51 4.8 S 24 30 13 16 1012.9 1012.3 0.0
19/08:00am 13.9 9.2 5.0 55 4.2 S 19 24 10 13 1013.1 1012.5 0.0
19/07:30am 12.6 8.7 5.3 61 3.4 S 15 20 8 11 1012.9 1012.3 0.0
19/07:00am 11.1 7.6 5.4 68 2.6 SSW 13 19 7 10 1012.7 1012.1 0.0
19/06:30am 10.7 6.8 5.3 69 2.5 SSW 15 24 8 13 1012.5 1011.9 0.0
19/06:00am 11.1 6.8 5.2 67 2.7 SSW 17 22 9 12 1012.3 1011.7 0.0
19/05:30am 11.1 7.1 4.8 65 2.9 S 15 24 8 13 1012.2 1011.6 0.0
19/05:00am 11.4 7.3 4.4 62 3.2 SSW 15 20 8 11 1012.2 1011.6 0.0
19/04:30am 11.4 7.3 4.2 61 3.3 S 15 24 8 13 1012.1 1011.5 0.0
19/04:00am 11.7 6.7 4.4 61 3.3 S 20 26 11 14 1012.1 1011.5 0.0
19/03:30am 12.1 7.0 4.1 58 3.6 S 20 28 11 15 1012.5 1011.9 0.0
19/03:00am 12.3 7.1 3.5 55 3.9 S 20 28 11 15 1012.6 1012.0 0.0
19/02:30am 12.4 6.1 3.9 56 3.8 S 26 35 14 19 1012.6 1012.0 0.0
19/02:00am 12.8 7.5 4.8 58 3.7 S 22 33 12 18 1013.1 1012.5 0.0
19/01:30am 13.0 7.4 5.4 60 3.6 S 24 37 13 20 1013.2 1012.6 0.0
19/01:00am 13.3 7.0 5.9 61 3.5 S 28 39 15 21 1013.5 1012.9 0.0
19/12:30am 13.5 7.6 5.9 60 3.6 S 26 39 14 21 1013.9 1013.3 0.0
19/12:00am 13.8 7.4 5.4 57 4.0 S 28 37 15 20 1014.2 1013.6 0.0
 
Date/Time
EDT
Temp
°C
App
Temp
°C
Dew
Point
°C
Rel
Hum
%
Delta-T
°C
Wind Press
QNH
hPa
Press
MSL
hPa
Rain since
9am
mm
Dir  Spd
km/h
Gust
km/h
Spd
kts
Gust
kts
18/11:30pm 14.1 9.1 4.7 53 4.4 S 20 32 11 17 1014.5 1013.9 0.0
18/11:00pm 14.7 9.7 4.7 51 4.7 SSE 20 30 11 16 1014.9 1014.4 0.0
18/10:30pm 15.4 10.1 5.0 50 4.9 S 22 32 12 17 1014.8 1014.3 0.0
18/10:00pm 16.1 9.6 4.8 47 5.4 S 28 37 15 20 1014.2 1013.6 0.0
18/09:30pm 16.7 11.1 5.3 47 5.5 S 24 33 13 18 1014.1 1013.5 0.0
18/09:00pm 17.4 11.3 5.0 44 6.0 S 26 43 14 23 1014.0 1013.4 0.0
18/08:30pm 18.4 11.8 4.2 39 6.8 S 28 39 15 21 1013.7 1013.1 0.0
18/08:00pm 19.4 12.9 4.7 38 7.1 S 28 41 15 22 1013.6 1013.0 0.0
18/07:30pm 20.5 14.0 4.5 35 7.8 S 28 39 15 21 1013.4 1012.8 0.0

Other Formats:

Comma delimited format used in spreadsheet applications
http://www.bom.gov.au/fwo/IDV60801/IDV60801.94874.axf

JavaScript Object Notation format (JSON) in row-major order
http://www.bom.gov.au/fwo/IDV60801/IDV60801.94874.json